Time;durP1;ratioP1;P1;durP2;ratioP2;P2;SDS_P1;SDS_P2;PMS_P1;PMS_P2;Temp;Humidity;BMP_temperature;BMP_pressure;BME280_temperature;BME280_humidity;BME280_pressure;Samples;Min_cycle;Max_cycle;Signal;HPM_P1;HPM_P2
2023/01/23 05:22:33;;;;;;;5.32;2.88;;;;;;;0.57;100.00;101660.97;5089080;28;20335;-68
2023/01/23 05:24:59;;;;;;;9.57;3.40;;;;;;;0.59;100.00;101660.91;5087754;28;20495;-68
2023/01/23 05:27:27;;;;;;;9.40;5.68;;;;;;;0.62;100.00;101658.16;5087464;28;20064;-68
2023/01/23 05:29:53;;;;;;;14.02;6.13;;;;;;;0.62;100.00;101666.00;5087880;28;20036;-67
2023/01/23 05:32:22;;;;;;;13.75;5.45;;;;;;;0.58;100.00;101669.69;5091111;28;20028;-67
2023/01/23 05:34:53;;;;;;;9.32;3.63;;;;;;;0.62;100.00;101677.34;5090754;28;20051;-66
2023/01/23 05:37:24;;;;;;;16.27;6.07;;;;;;;0.61;100.00;101670.41;5090248;28;20040;-67
2023/01/23 05:39:53;;;;;;;11.73;5.55;;;;;;;0.59;100.00;101674.00;5088785;28;20533;-65
2023/01/23 05:42:20;;;;;;;17.75;6.68;;;;;;;0.58;100.00;101667.06;5088390;28;20025;-66
2023/01/23 05:44:57;;;;;;;18.95;5.45;;;;;;;0.62;100.00;101672.09;5088516;28;20048;-65
2023/01/23 05:47:30;;;;;;;10.80;5.60;;;;;;;0.55;100.00;101668.09;5088359;28;20036;-68
2023/01/23 05:49:56;;;;;;;13.88;6.50;;;;;;;0.57;100.00;101671.47;5091578;28;20401;-68
2023/01/23 05:52:25;;;;;;;13.55;5.80;;;;;;;0.60;100.00;101675.75;5092436;28;20028;-67
2023/01/23 05:54:51;;;;;;;10.55;4.72;;;;;;;0.52;100.00;101676.97;5093277;28;20046;-68
2023/01/23 05:57:17;;;;;;;13.35;5.53;;;;;;;0.58;100.00;101681.03;5092287;28;20063;-68
2023/01/23 06:00:18;;;;;;;10.57;5.88;;;;;;;0.60;100.00;101684.44;5095707;28;20036;-67
2023/01/23 06:03:02;;;;;;;13.85;5.05;;;;;;;0.60;100.00;101680.97;5091168;28;20032;-68
2023/01/23 06:05:49;;;;;;;12.15;5.60;;;;;;;0.60;100.00;101681.84;5089739;28;20051;-67
2023/01/23 06:08:17;;;;;;;;;;;;;;;0.62;100.00;101681.75;5089645;28;20040;-67
2023/01/23 06:10:43;;;;;;;10.00;4.97;;;;;;;0.64;100.00;101685.13;5090421;28;20323;-68
2023/01/23 06:13:09;;;;;;;9.85;5.40;;;;;;;0.62;100.00;101681.75;5090071;28;20140;-67
2023/01/23 06:15:36;;;;;;;11.38;5.65;;;;;;;0.60;100.00;101688.84;5090158;28;20066;-67
2023/01/23 06:18:06;;;;;;;13.18;4.80;;;;;;;0.59;100.00;101688.00;5089702;28;20032;-68
2023/01/23 06:20:32;;;;;;;13.75;6.57;;;;;;;0.54;100.00;101682.13;5089561;28;20109;-66
2023/01/23 06:22:57;;;;;;;11.18;5.38;;;;;;;0.44;100.00;101683.47;5090776;28;20040;-66
2023/01/23 06:25:24;;;;;;;15.27;6.85;;;;;;;0.47;100.00;101685.97;5089143;28;20067;-67
2023/01/23 06:27:52;;;;;;;6.95;4.15;;;;;;;0.40;100.00;101684.56;5089004;28;20104;-67
2023/01/23 06:30:17;;;;;;;7.80;4.38;;;;;;;0.41;100.00;101688.88;5074591;28;20056;-67
2023/01/23 06:32:45;;;;;;;16.75;6.72;;;;;;;0.36;100.00;101685.63;5083341;28;20516;-63
2023/01/23 06:35:13;;;;;;;15.15;5.72;;;;;;;0.40;100.00;101687.19;5073032;28;20045;-62
2023/01/23 06:37:41;;;;;;;14.23;5.72;;;;;;;0.41;100.00;101691.50;5072664;28;20036;-65
2023/01/23 06:40:12;;;;;;;17.42;5.55;;;;;;;0.21;100.00;101682.81;5072748;28;20060;-66
2023/01/23 06:42:42;;;;;;;18.83;6.88;;;;;;;0.31;100.00;101693.69;5072729;28;20086;-65
2023/01/23 06:45:09;;;;;;;16.15;6.10;;;;;;;0.36;100.00;101696.09;5072712;28;20031;-66
2023/01/23 06:47:35;;;;;;;12.10;5.57;;;;;;;0.30;100.00;101697.25;5073552;28;20485;-66
2023/01/23 06:50:01;;;;;;;18.55;5.90;;;;;;;0.37;100.00;101697.81;5072285;28;20612;-66
2023/01/23 06:52:29;;;;;;;17.63;6.88;;;;;;;0.41;100.00;101704.59;5072803;28;20037;-65
2023/01/23 06:54:55;;;;;;;13.25;6.45;;;;;;;0.40;100.00;101713.41;5073945;28;20566;-65
2023/01/23 06:57:20;;;;;;;15.50;7.07;;;;;;;0.41;100.00;101715.94;5072301;28;20029;-66
2023/01/23 06:59:47;;;;;;;11.43;6.13;;;;;;;0.41;100.00;101718.56;5072456;28;20457;-66
2023/01/23 07:02:14;;;;;;;22.73;7.40;;;;;;;0.43;100.00;101724.56;5072635;28;20048;-67
2023/01/23 07:04:48;;;;;;;16.08;6.43;;;;;;;0.47;100.00;101723.53;5072551;28;20036;-67
2023/01/23 07:07:14;;;;;;;19.58;6.68;;;;;;;0.47;100.00;101735.78;5073434;28;20045;-66
2023/01/23 07:09:40;;;;;;;16.90;7.05;;;;;;;0.51;100.00;101739.94;5072415;28;20039;-66
2023/01/23 07:12:16;;;;;;;16.52;6.43;;;;;;;0.55;100.00;101744.13;5073559;28;20045;-66
2023/01/23 07:14:41;;;;;;;23.48;8.52;;;;;;;0.55;100.00;101741.50;5072324;28;20032;-66
2023/01/23 07:17:09;;;;;;;22.48;8.65;;;;;;;0.56;100.00;101751.06;5072031;28;20127;-66
2023/01/23 07:19:34;;;;;;;21.88;6.55;;;;;;;0.59;100.00;101752.69;5072227;28;20148;-66
2023/01/23 07:22:03;;;;;;;17.98;7.28;;;;;;;0.55;100.00;101757.25;5055931;28;20113;-66
2023/01/23 07:24:30;;;;;;;20.10;6.90;;;;;;;0.56;100.00;101766.81;5073337;28;20117;-67
2023/01/23 07:26:56;;;;;;;17.00;6.93;;;;;;;0.61;100.00;101759.56;5071875;28;20041;-65
2023/01/23 07:29:21;;;;;;;16.80;6.65;;;;;;;0.66;100.00;101757.59;5073037;28;20436;-66
2023/01/23 07:31:46;;;;;;;16.52;6.93;;;;;;;0.60;100.00;101759.66;5073165;28;20040;-66
2023/01/23 07:34:12;;;;;;;20.13;7.28;;;;;;;0.58;100.00;101757.09;5073288;28;20090;-65
2023/01/23 07:36:37;;;;;;;18.58;7.38;;;;;;;0.63;100.00;101762.97;5073047;28;20029;-66
2023/01/23 07:39:02;;;;;;;24.67;7.25;;;;;;;0.62;100.00;101769.13;5072676;28;20037;-66
2023/01/23 07:41:28;;;;;;;23.27;6.10;;;;;;;0.66;100.00;101756.75;5072952;28;20036;-66
2023/01/23 07:43:53;;;;;;;24.15;7.82;;;;;;;0.67;100.00;101768.94;5072274;28;20504;-66
2023/01/23 07:46:19;;;;;;;21.45;7.15;;;;;;;0.63;100.00;101757.72;5072847;28;20044;-66
2023/01/23 07:48:44;;;;;;;15.35;6.70;;;;;;;0.66;100.00;101767.25;5072668;28;20037;-65
2023/01/23 07:51:10;;;;;;;22.25;7.65;;;;;;;0.67;100.00;101764.53;5072586;28;20033;-65
2023/01/23 07:53:36;;;;;;;24.83;7.10;;;;;;;0.66;100.00;101767.25;5072690;28;20063;-65
2023/01/23 07:56:05;;;;;;;20.52;7.05;;;;;;;0.68;100.00;101770.63;5072731;28;20044;-65
2023/01/23 07:58:31;;;;;;;17.55;6.05;;;;;;;0.72;100.00;101772.19;5072402;28;20478;-66
2023/01/23 08:00:56;;;;;;;22.92;6.72;;;;;;;0.66;100.00;101769.88;5072810;28;20107;-64
2023/01/23 08:03:21;;;;;;;16.40;5.88;;;;;;;0.69;100.00;101770.53;5072727;28;20063;-66
2023/01/23 08:05:48;;;;;;;19.55;6.90;;;;;;;0.72;100.00;101773.03;5072498;28;20079;-65
2023/01/23 08:08:14;;;;;;;13.57;6.85;;;;;;;0.73;100.00;101759.00;5072091;28;20068;-66
2023/01/23 08:10:40;;;;;;;14.60;5.68;;;;;;;0.77;100.00;101770.19;5072494;28;20115;-66
2023/01/23 08:13:05;;;;;;;16.58;6.20;;;;;;;0.75;100.00;101767.63;5071050;28;20098;-66
2023/01/23 08:15:30;;;;;;;20.48;6.03;;;;;;;0.81;100.00;101761.25;5072489;28;20044;-67
2023/01/23 08:17:56;;;;;;;17.33;6.82;;;;;;;0.85;100.00;101765.44;5072887;28;20044;-66
2023/01/23 08:20:22;;;;;;;20.88;6.57;;;;;;;0.84;100.00;101755.00;5071935;28;20105;-67
2023/01/23 08:22:47;;;;;;;18.73;7.63;;;;;;;0.87;100.00;101755.72;5072245;28;20478;-67
2023/01/23 08:25:12;;;;;;;18.60;6.95;;;;;;;0.93;100.00;101765.91;5072056;28;20036;-66
2023/01/23 08:27:38;;;;;;;19.65;7.05;;;;;;;0.93;100.00;101763.28;5072424;28;20054;-65
2023/01/23 08:30:07;;;;;;;15.38;6.90;;;;;;;0.94;100.00;101759.72;5072445;28;20032;-67
2023/01/23 08:32:34;;;;;;;15.02;6.47;;;;;;;1.03;100.00;101758.41;5072009;28;20436;-67
2023/01/23 08:35:00;;;;;;;18.42;6.47;;;;;;;1.07;100.00;101763.44;5071990;28;20094;-66
2023/01/23 08:37:25;;;;;;;15.98;6.72;;;;;;;1.10;100.00;101762.44;5071700;28;20349;-66
2023/01/23 08:39:50;;;;;;;17.73;6.40;;;;;;;1.09;100.00;101768.63;5072141;28;20068;-67
2023/01/23 08:42:16;;;;;;;17.92;5.95;;;;;;;1.04;100.00;101768.00;5071915;28;20115;-66
2023/01/23 08:44:41;;;;;;;23.92;7.25;;;;;;;1.11;100.00;101769.41;5071966;28;20070;-66
2023/01/23 08:47:07;;;;;;;16.52;6.88;;;;;;;1.12;100.00;101759.75;5071627;28;20500;-68
2023/01/23 08:49:32;;;;;;;22.73;7.03;;;;;;;1.18;100.00;101764.72;5071902;28;20086;-66
2023/01/23 08:51:58;;;;;;;15.43;5.53;;;;;;;1.20;100.00;101773.34;5071907;28;20549;-66
2023/01/23 08:54:24;;;;;;;16.67;6.57;;;;;;;1.23;100.00;101766.16;5071937;28;20128;-66
2023/01/23 08:56:50;;;;;;;16.90;6.25;;;;;;;1.25;100.00;101769.56;5071464;28;20028;-65
2023/01/23 08:59:15;;;;;;;12.73;5.60;;;;;;;1.22;100.00;101767.09;5070686;28;20047;-65
2023/01/23 09:01:41;;;;;;;18.92;6.95;;;;;;;1.24;100.00;101759.13;5071936;28;20037;-66
2023/01/23 09:04:06;;;;;;;17.88;8.40;;;;;;;1.25;100.00;101764.31;5071710;28;20038;-65
2023/01/23 09:06:31;;;;;;;15.27;6.47;;;;;;;1.26;100.00;101771.28;5071645;28;20040;-66
2023/01/23 09:08:57;;;;;;;21.55;7.45;;;;;;;1.29;100.00;101760.59;5071345;28;20060;-67
2023/01/23 09:11:22;;;;;;;17.77;6.72;;;;;;;1.35;100.00;101765.53;5070313;28;20047;-66
2023/01/23 09:13:48;;;;;;;14.02;6.53;;;;;;;1.38;100.00;101761.94;5071762;28;20047;-65
2023/01/23 09:16:14;;;;;;;12.18;5.82;;;;;;;1.36;100.00;101763.75;5071341;28;20044;-66
2023/01/23 09:18:39;;;;;;;17.70;6.80;;;;;;;1.42;100.00;101766.09;5071706;28;20040;-66
2023/01/23 09:21:10;;;;;;;18.65;7.22;;;;;;;1.38;100.00;101766.34;5071382;28;20028;-65
2023/01/23 09:23:36;;;;;;;14.57;5.93;;;;;;;1.41;100.00;101780.16;5071623;28;20424;-66
2023/01/23 09:26:07;;;;;;;16.00;5.70;;;;;;;1.46;100.00;101770.25;5071307;28;20036;-66
2023/01/23 09:28:34;;;;;;;19.48;7.97;;;;;;;1.50;100.00;101777.06;5071219;28;20123;-66
2023/01/23 09:31:06;;;;;;;18.48;6.43;;;;;;;1.51;100.00;101778.78;5071344;28;20044;-67
2023/01/23 09:33:33;;;;;;;16.92;6.20;;;;;;;1.48;100.00;101783.31;5071377;28;20505;-66
2023/01/23 09:35:58;;;;;;;16.23;7.00;;;;;;;1.49;100.00;101787.63;5071259;28;20445;-67
2023/01/23 09:38:25;;;;;;;15.90;6.47;;;;;;;1.42;100.00;101794.13;5071169;28;20123;-66
2023/01/23 09:40:55;;;;;;;16.95;5.80;;;;;;;1.45;100.00;101796.63;5071421;28;20032;-65
2023/01/23 09:43:32;;;;;;;14.10;5.72;;;;;;;1.43;100.00;101796.66;5071354;28;20125;-66
2023/01/23 09:46:13;;;;;;;19.05;6.15;;;;;;;1.48;100.00;101796.44;5071401;28;20338;-66
2023/01/23 09:48:56;;;;;;;18.80;7.50;;;;;;;1.54;100.00;101786.47;5071153;28;20044;-66
2023/01/23 09:51:37;;;;;;;16.58;5.43;;;;;;;1.52;100.00;101784.88;5071039;28;20074;-66
2023/01/23 09:54:43;;;;;;;17.55;7.22;;;;;;;1.49;100.00;101775.34;5071102;28;20037;-64
2023/01/23 09:57:21;;;;;;;24.50;7.78;;;;;;;1.53;100.00;101773.44;5059686;28;20044;-66
2023/01/23 09:59:53;;;;;;;26.05;7.63;;;;;;;1.58;100.00;101772.28;5071112;28;20040;-65
2023/01/23 10:02:21;;;;;;;19.95;8.85;;;;;;;1.63;100.00;101777.31;5071211;28;20040;-65
2023/01/23 10:04:51;;;;;;;14.77;5.28;;;;;;;1.69;100.00;101776.94;5070747;28;20036;-65
2023/01/23 10:07:34;;;;;;;18.25;7.53;;;;;;;1.75;100.00;101773.16;5071467;28;20033;-66
2023/01/23 10:10:25;;;;;;;16.23;6.25;;;;;;;1.77;100.00;101766.94;5074943;28;20071;-65
2023/01/23 10:13:03;;;;;;;15.63;6.78;;;;;;;1.81;100.00;101768.44;5074909;28;20080;-66
2023/01/23 10:15:37;;;;;;;17.88;6.20;;;;;;;1.90;100.00;101765.34;5074678;28;20505;-65
2023/01/23 10:18:18;;;;;;;15.45;5.70;;;;;;;1.92;100.00;101756.53;5074530;28;20075;-65
2023/01/23 10:20:54;;;;;;;16.05;7.38;;;;;;;1.88;100.00;101777.69;5074539;28;20074;-66
2023/01/23 10:23:19;;;;;;;15.57;6.10;;;;;;;1.89;100.00;101779.44;5074684;28;20121;-65
2023/01/23 10:25:46;;;;;;;19.20;6.05;;;;;;;1.89;100.00;101775.91;5074657;28;20060;-65
2023/01/23 10:28:38;;;;;;;16.20;5.93;;;;;;;1.86;100.00;101779.56;5074438;28;20051;-65
2023/01/23 10:31:38;;;;;;;18.13;7.43;;;;;;;1.90;100.00;101777.66;5074287;28;20033;-65
2023/01/23 10:34:09;;;;;;;14.48;5.32;;;;;;;1.98;100.00;101769.34;5074307;28;20093;-66
2023/01/23 10:37:15;;;;;;;12.63;6.00;;;;;;;2.02;100.00;101777.00;5074405;28;20169;-65
2023/01/23 10:39:53;;;;;;;15.95;7.07;;;;;;;1.99;100.00;101760.53;5073188;28;20052;-65
2023/01/23 10:42:21;;;;;;;15.85;6.63;;;;;;;2.05;100.00;101770.72;5074177;28;20035;-65
2023/01/23 10:44:47;;;;;;;13.52;6.05;;;;;;;2.12;100.00;101774.72;5074432;28;20037;-65
2023/01/23 10:47:34;;;;;;;15.73;6.97;;;;;;;2.21;100.00;101776.84;5073921;28;20055;-65
2023/01/23 10:50:00;;;;;;;15.80;6.40;;;;;;;2.18;99.24;101779.66;5074013;28;20132;-65
2023/01/23 10:52:36;;;;;;;16.85;6.25;;;;;;;2.18;98.20;101777.03;5073905;28;20039;-66
2023/01/23 10:55:27;;;;;;;10.57;6.13;;;;;;;2.23;96.21;101780.25;5073819;28;20032;-64
2023/01/23 10:57:56;;;;;;;16.80;5.82;;;;;;;2.17;96.58;101789.31;5073638;28;20028;-65
2023/01/23 11:00:35;;;;;;;11.55;5.28;;;;;;;2.21;94.51;101795.25;5073860;28;20456;-66
2023/01/23 11:03:19;;;;;;;11.95;4.78;;;;;;;2.17;94.14;101781.44;5073770;28;20484;-66
2023/01/23 11:05:51;;;;;;;10.05;3.97;;;;;;;2.24;94.12;101774.06;5073545;28;20379;-66
2023/01/23 11:08:29;;;;;;;17.38;5.22;;;;;;;2.17;95.03;101784.06;5073268;28;20035;-65
2023/01/23 11:11:26;;;;;;;13.55;4.93;;;;;;;2.14;94.58;101776.31;5073409;28;20429;-66
2023/01/23 11:14:05;;;;;;;;;;;;;;;2.20;94.05;101783.03;5072591;28;20043;-65
2023/01/23 11:16:31;;;;;;;12.80;6.40;;;;;;;2.21;94.11;101774.22;5072227;28;20039;-65
2023/01/23 11:19:08;;;;;;;14.80;5.57;;;;;;;2.15;91.91;101774.53;5073057;28;20028;-66
2023/01/23 11:21:49;;;;;;;11.27;5.20;;;;;;;2.21;92.85;101774.22;5073367;28;20500;-65
2023/01/23 11:24:24;;;;;;;12.98;5.78;;;;;;;2.26;93.71;101763.47;5073906;28;20132;-66
2023/01/23 11:27:01;;;;;;;13.75;4.97;;;;;;;2.31;92.87;101767.53;5073396;28;20052;-65
2023/01/23 11:29:29;;;;;;;15.00;6.15;;;;;;;2.28;93.33;101754.56;5073200;28;20052;-66
2023/01/23 11:32:07;;;;;;;12.15;5.00;;;;;;;2.48;93.02;101763.13;5073787;28;20685;-67
2023/01/23 11:34:39;;;;;;;14.70;5.63;;;;;;;2.49;92.22;101762.22;5073085;28;20470;-67
2023/01/23 11:37:23;;;;;;;10.50;5.53;;;;;;;2.41;91.77;101749.47;5072770;28;20036;-66
2023/01/23 11:39:56;;;;;;;17.23;5.00;;;;;;;2.65;90.81;101765.69;5073074;28;20037;-67
2023/01/23 11:42:25;;;;;;;11.48;4.60;;;;;;;2.57;90.35;101757.38;5073123;28;20115;-67
2023/01/23 11:44:51;;;;;;;10.10;5.45;;;;;;;2.76;90.58;101760.69;5071523;28;20037;-66
2023/01/23 11:47:39;;;;;;;10.55;5.20;;;;;;;2.78;89.00;101750.91;5072552;28;20074;-67
2023/01/23 11:50:51;;;;;;;14.73;5.07;;;;;;;2.71;91.40;101739.03;5072820;28;20040;-67
2023/01/23 11:53:31;;;;;;;9.25;4.00;;;;;;;2.92;88.42;101729.91;5062697;28;20474;-68
2023/01/23 11:56:20;;;;;;;11.25;4.57;;;;;;;3.20;85.78;101736.22;5072780;28;20125;-67
2023/01/23 11:58:57;;;;;;;13.35;4.82;;;;;;;3.37;85.45;101738.69;5069150;28;20047;-66
2023/01/23 12:01:50;;;;;;;10.00;4.80;;;;;;;3.46;84.25;101719.72;5072602;28;20159;-67
2023/01/23 12:04:33;;;;;;;10.50;3.95;;;;;;;3.33;84.04;101724.03;5072483;28;20042;-68
2023/01/23 12:07:19;;;;;;;11.07;4.57;;;;;;;3.36;83.28;101730.91;5072354;28;20052;-68
2023/01/23 12:09:55;;;;;;;9.95;4.45;;;;;;;3.37;83.57;101730.78;5072102;28;20075;-68
2023/01/23 12:12:28;;;;;;;10.70;4.40;;;;;;;3.23;84.64;101717.59;5071135;28;20037;-67
2023/01/23 12:15:16;;;;;;;8.60;3.65;;;;;;;3.45;84.90;101715.38;5072689;28;20438;-67
2023/01/23 12:18:07;;;;;;;13.70;5.30;;;;;;;3.52;84.04;101719.38;5072035;28;20033;-68
2023/01/23 12:20:54;;;;;;;8.10;4.00;;;;;;;3.41;84.71;101713.03;5072334;28;20091;-68
2023/01/23 12:23:49;;;;;;;7.55;4.40;;;;;;;3.41;83.92;101719.16;5072170;28;20128;-67
2023/01/23 12:26:23;;;;;;;12.45;5.03;;;;;;;3.33;83.65;101710.03;5072047;28;20089;-68
2023/01/23 12:29:05;;;;;;;7.50;3.53;;;;;;;3.04;85.68;101704.66;5071748;28;20347;-65
2023/01/23 12:31:39;;;;;;;8.38;4.00;;;;;;;3.15;84.90;101709.31;5071719;28;20047;-67
2023/01/23 12:34:08;;;;;;;8.60;4.32;;;;;;;3.03;84.62;101710.03;5072048;28;20047;-67
2023/01/23 12:36:51;;;;;;;7.70;4.93;;;;;;;2.86;85.40;101711.81;5071894;28;20079;-68
2023/01/23 12:39:19;;;;;;;6.43;3.83;;;;;;;2.71;85.93;101702.19;5071825;28;20043;-67
2023/01/23 12:41:51;;;;;;;10.93;4.28;;;;;;;2.76;85.10;101691.41;5071899;28;20071;-67
2023/01/23 12:44:25;;;;;;;10.40;4.32;;;;;;;2.66;87.30;101707.72;5072040;28;20040;-65
2023/01/23 12:47:02;;;;;;;12.02;5.15;;;;;;;2.79;85.32;101697.31;5071682;28;20086;-67
2023/01/23 12:49:41;;;;;;;12.27;4.85;;;;;;;2.77;87.89;101698.38;5071547;28;20111;-67
2023/01/23 12:52:14;;;;;;;8.32;4.43;;;;;;;2.84;86.18;101689.19;5071528;28;20036;-67
2023/01/23 12:54:45;;;;;;;9.80;4.47;;;;;;;2.78;87.27;101689.53;5071700;28;20046;-67
2023/01/23 12:57:12;;;;;;;10.65;5.00;;;;;;;2.79;86.40;101694.69;5071307;28;20128;-67
2023/01/23 12:59:47;;;;;;;12.63;4.72;;;;;;;2.87;87.29;101692.50;5071782;28;20040;-67
2023/01/23 13:02:27;;;;;;;8.23;4.53;;;;;;;2.95;86.90;101684.16;5071734;28;20115;-67
2023/01/23 13:04:59;;;;;;;12.30;4.32;;;;;;;2.95;87.87;101682.38;5071651;28;20082;-66
2023/01/23 13:07:47;;;;;;;12.13;4.93;;;;;;;2.95;87.79;101676.25;5071318;28;20044;-66
2023/01/23 13:11:39;;;;;;;6.38;3.75;;;;;;;2.99;86.96;101672.47;5071790;28;20051;-68
2023/01/23 13:13:18;;;;;;;8.30;3.83;;;;;;;3.17;86.78;101671.41;5071375;28;20107;-68
2023/01/23 13:16:01;;;;;;;7.27;4.03;;;;;;;3.19;86.81;101676.56;5071545;28;20028;-67
2023/01/23 13:18:27;;;;;;;7.85;4.00;;;;;;;3.17;86.48;101670.56;5071131;28;20282;-68
2023/01/23 13:23:42;;;;;;;10.90;4.55;;;;;;;3.05;86.85;101666.84;5071450;28;20489;-67
2023/01/23 13:26:21;;;;;;;7.47;3.80;;;;;;;3.11;87.18;101665.66;5071450;28;20059;-67
2023/01/23 13:28:56;;;;;;;9.38;4.68;;;;;;;3.10;87.48;101663.97;5071193;28;20101;-67
2023/01/23 13:31:35;;;;;;;7.07;3.30;;;;;;;2.99;87.80;101673.31;5071252;28;20040;-67
2023/01/23 13:34:22;;;;;;;10.50;4.13;;;;;;;3.01;88.45;101662.72;5071439;28;20127;-67
2023/01/23 13:36:49;;;;;;;8.50;3.22;;;;;;;2.99;88.78;101665.44;5063651;28;20061;-67
2023/01/23 13:39:17;;;;;;;9.38;4.28;;;;;;;3.08;87.80;101657.94;5071092;28;20049;-68
2023/01/23 13:41:46;;;;;;;6.18;3.55;;;;;;;3.11;87.93;101655.13;5071676;28;20035;-68
2023/01/23 13:44:17;;;;;;;7.88;4.15;;;;;;;3.17;87.54;101660.88;5075205;28;20037;-68
2023/01/23 13:46:52;;;;;;;6.95;4.00;;;;;;;3.21;86.34;101656.28;5075321;28;20090;-67
2023/01/23 13:50:11;;;;;;;8.82;3.65;;;;;;;3.28;86.77;101651.50;5075018;28;20041;-67
2023/01/23 13:58:19;;;;;;;5.47;3.05;;;;;;;3.22;87.53;101658.81;5073620;28;20033;-68
2023/01/23 14:05:11;;;;;;;5.57;3.35;;;;;;;3.20;87.02;101665.97;5074756;28;20036;-66
2023/01/23 14:06:34;;;;;;;6.18;3.63;;;;;;;3.25;87.28;101668.31;5074534;28;20123;-68
2023/01/23 14:08:59;;;;;;;5.30;2.90;;;;;;;3.17;86.82;101666.13;5074794;28;20032;-68
2023/01/23 14:11:34;;;;;;;15.35;3.95;;;;;;;3.16;87.18;101659.19;5073369;28;20347;-67
2023/01/23 14:16:47;;;;;;;8.30;3.88;;;;;;;3.15;87.88;101662.75;5074357;28;20037;-67
2023/01/23 14:19:25;;;;;;;6.82;2.78;;;;;;;3.15;87.26;101662.75;5074313;28;20040;-67
2023/01/23 14:21:54;;;;;;;5.18;2.80;;;;;;;3.15;87.76;101664.53;5074288;28;20028;-68
2023/01/23 14:24:27;;;;;;;6.55;3.25;;;;;;;3.13;88.14;101653.22;5074518;28;20409;-67
2023/01/23 14:26:59;;;;;;;6.68;3.40;;;;;;;2.99;89.16;101636.47;5074780;28;20036;-66
2023/01/23 14:29:26;;;;;;;4.18;2.90;;;;;;;2.99;90.04;101648.78;5074146;28;20028;-68
2023/01/23 14:31:52;;;;;;;7.78;3.67;;;;;;;3.04;89.36;101646.75;5074391;28;20048;-66
2023/01/23 14:34:20;;;;;;;6.10;3.03;;;;;;;3.01;89.41;101644.31;5074520;28;20391;-67
2023/01/23 14:37:00;;;;;;;8.70;4.38;;;;;;;2.99;89.37;101641.75;5074248;28;20040;-67
2023/01/23 14:39:29;;;;;;;10.40;4.13;;;;;;;2.97;88.53;101641.00;5074369;28;20581;-67
2023/01/23 14:41:56;;;;;;;7.50;3.70;;;;;;;2.97;89.71;101637.50;5074681;28;20047;-68
2023/01/23 14:44:27;;;;;;;8.25;3.80;;;;;;;2.98;89.33;101624.25;5075376;28;20048;-67
2023/01/23 14:46:56;;;;;;;7.95;4.25;;;;;;;3.06;89.69;101633.47;5078642;28;20044;-68
2023/01/23 14:49:31;;;;;;;8.23;3.92;;;;;;;3.08;90.31;101631.63;5074736;28;20044;-67
2023/01/23 14:52:05;;;;;;;8.68;4.28;;;;;;;3.04;89.83;101630.94;5074139;28;20093;-68
2023/01/23 14:54:32;;;;;;;4.75;3.22;;;;;;;3.09;90.32;101636.78;5073364;28;20067;-67
2023/01/23 14:56:59;;;;;;;5.88;3.95;;;;;;;3.12;89.56;101630.47;5073900;28;20435;-68
2023/01/23 14:59:38;;;;;;;10.65;4.38;;;;;;;3.08;89.63;101642.16;5073786;28;20489;-68
2023/01/23 15:02:39;;;;;;;6.68;3.50;;;;;;;3.05;89.59;101634.41;5073951;28;20036;-66
2023/01/23 15:05:17;;;;;;;4.40;2.50;;;;;;;3.10;89.86;101642.91;5051538;28;20071;-67
2023/01/23 15:07:44;;;;;;;;;;;;;;;3.06;90.33;101644.00;5070981;28;20532;-67
2023/01/23 15:10:21;;;;;;;4.93;3.17;;;;;;;3.05;90.56;101648.44;5073677;28;19924;-68
2023/01/23 15:13:01;;;;;;;4.75;3.30;;;;;;;3.05;90.34;101658.97;5073407;28;20120;-66
2023/01/23 15:15:28;;;;;;;4.95;3.00;;;;;;;3.04;90.51;101659.06;5073156;28;20040;-68
2023/01/23 15:17:55;;;;;;;5.40;3.33;;;;;;;3.03;90.60;101657.38;5073168;28;20124;-68
2023/01/23 15:20:28;;;;;;;8.15;3.40;;;;;;;3.04;90.46;101659.06;5073605;28;20090;-68
2023/01/23 15:22:54;;;;;;;8.25;3.88;;;;;;;3.02;90.81;101655.69;5073438;28;20040;-68
2023/01/23 15:25:31;;;;;;;5.18;3.53;;;;;;;2.96;90.86;101638.47;5073323;28;20025;-68
2023/01/23 15:27:57;;;;;;;8.13;4.40;;;;;;;2.98;91.53;101653.22;5072932;28;20428;-66
2023/01/23 15:30:32;;;;;;;4.95;3.38;;;;;;;2.95;91.19;101656.03;5073344;28;20120;-68
2023/01/23 15:33:04;;;;;;;5.40;3.10;;;;;;;2.97;90.59;101648.88;5073282;28;20039;-66
2023/01/23 15:35:35;;;;;;;5.75;3.55;;;;;;;2.94;92.00;101654.34;5073045;28;20036;-67
2023/01/23 15:38:03;;;;;;;5.47;3.13;;;;;;;2.98;91.30;101661.09;5073003;28;20041;-68
2023/01/23 15:40:31;;;;;;;4.50;2.42;;;;;;;3.04;91.11;101667.81;5072871;28;20040;-67
2023/01/23 15:43:10;;;;;;;4.78;2.80;;;;;;;2.99;91.92;101668.06;5072975;28;20036;-67
2023/01/23 15:45:36;;;;;;;5.07;2.75;;;;;;;2.92;91.99;101669.38;5072758;28;20043;-67
2023/01/23 15:48:01;;;;;;;5.97;3.53;;;;;;;2.96;91.85;101672.69;5072585;28;20036;-66
2023/01/23 15:50:27;;;;;;;4.63;3.00;;;;;;;2.99;92.04;101678.59;5072844;28;20473;-67
2023/01/23 15:52:54;;;;;;;5.68;3.13;;;;;;;2.93;91.86;101678.09;5072814;28;20043;-67
2023/01/23 15:55:22;;;;;;;7.82;3.92;;;;;;;2.93;91.94;101683.38;5072529;28;20466;-66
2023/01/23 15:57:47;;;;;;;;;;;;;;;2.94;92.06;101685.94;5072596;28;20116;-68
2023/01/23 16:00:16;;;;;;;7.65;3.33;;;;;;;2.94;92.25;101687.72;5072470;28;19965;-67
2023/01/23 16:02:42;;;;;;;4.38;3.53;;;;;;;2.88;93.27;101686.28;5072539;28;20127;-67
2023/01/23 16:05:08;;;;;;;5.68;3.55;;;;;;;2.96;92.07;101683.22;5071634;28;20032;-68
2023/01/23 16:07:39;;;;;;;6.07;2.92;;;;;;;2.90;92.96;101687.03;5071907;28;20131;-68
2023/01/23 16:10:18;;;;;;;5.63;3.33;;;;;;;2.89;92.62;101693.25;5072461;28;20041;-69
2023/01/23 16:12:45;;;;;;;5.25;3.28;;;;;;;2.86;92.38;101692.56;5072225;28;20097;-67
2023/01/23 16:15:20;;;;;;;7.80;2.83;;;;;;;2.86;92.22;101685.50;5072235;28;20124;-67
2023/01/23 16:17:46;;;;;;;4.72;3.13;;;;;;;2.90;92.66;101689.66;5072073;28;20028;-67
2023/01/23 16:20:13;;;;;;;8.25;3.20;;;;;;;2.89;92.79;101698.50;5071966;28;20052;-68
2023/01/23 16:22:39;;;;;;;5.97;3.63;;;;;;;2.90;92.28;101692.31;5072213;28;20493;-68
2023/01/23 16:25:06;;;;;;;5.20;3.03;;;;;;;2.87;92.15;101700.38;5072147;28;20517;-66
2023/01/23 16:27:31;;;;;;;3.80;2.92;;;;;;;2.85;92.44;101696.13;5071732;28;20135;-67
2023/01/23 16:29:57;;;;;;;4.57;2.70;;;;;;;2.83;91.84;101701.50;5072062;28;20090;-67
2023/01/23 16:32:23;;;;;;;4.43;3.08;;;;;;;2.86;92.47;101703.94;5071844;28;20108;-66
2023/01/23 16:34:49;;;;;;;7.55;3.38;;;;;;;2.83;92.47;101706.75;5072215;28;20394;-67
2023/01/23 16:37:16;;;;;;;6.15;3.25;;;;;;;2.85;92.54;101698.75;5071568;28;20044;-67
2023/01/23 16:39:43;;;;;;;9.02;3.30;;;;;;;2.82;92.67;101707.69;5070699;28;20044;-68
2023/01/23 16:42:18;;;;;;;4.60;2.97;;;;;;;2.84;92.62;101697.91;5070705;28;20082;-68
2023/01/23 16:44:44;;;;;;;6.97;4.07;;;;;;;2.84;92.43;101694.44;5071621;28;20176;-67
2023/01/23 16:47:09;;;;;;;4.30;2.63;;;;;;;2.79;92.54;101697.31;5071611;28;20036;-68
2023/01/23 16:49:36;;;;;;;8.23;3.00;;;;;;;2.82;92.76;101696.31;5072083;28;20044;-67
2023/01/23 16:52:02;;;;;;;3.40;2.53;;;;;;;2.82;92.64;101686.63;5071992;28;20029;-67
2023/01/23 16:54:28;;;;;;;5.60;3.17;;;;;;;2.78;92.94;101693.00;5071960;28;20115;-68
2023/01/23 16:56:55;;;;;;;6.22;3.42;;;;;;;2.78;93.40;101687.75;5071724;28;20159;-69
2023/01/23 16:59:48;;;;;;;7.32;3.58;;;;;;;2.77;93.06;101687.84;5071752;28;20443;-68
2023/01/23 17:02:29;;;;;;;5.65;3.38;;;;;;;2.74;94.07;101702.03;5068843;28;20051;-68
2023/01/23 17:04:55;;;;;;;6.40;3.17;;;;;;;2.81;93.96;101702.53;5071558;28;20055;-69
2023/01/23 17:07:20;;;;;;;6.50;3.00;;;;;;;2.78;94.89;101711.44;5071600;28;20036;-69
2023/01/23 17:09:46;;;;;;;6.18;3.35;;;;;;;2.69;95.22;101701.44;5071886;28;20520;-68
2023/01/23 17:12:26;;;;;;;4.25;2.90;;;;;;;2.68;96.06;101705.00;5071678;28;20032;-68
2023/01/23 17:14:52;;;;;;;5.32;2.80;;;;;;;2.60;97.52;101712.47;5071773;28;20443;-69
2023/01/23 17:17:34;;;;;;;3.90;2.70;;;;;;;2.70;96.49;101714.50;5071384;28;20767;-67
2023/01/23 17:20:04;;;;;;;4.53;2.65;;;;;;;2.67;96.42;101719.06;5071925;28;20552;-69
2023/01/23 17:22:36;;;;;;;6.55;3.50;;;;;;;2.65;97.02;101713.06;5071656;28;20545;-69
2023/01/23 17:25:01;;;;;;;4.50;3.22;;;;;;;2.60;96.47;101708.03;5071947;28;20396;-68